sensor_id;sensor_type;location;lat;lon;timestamp;temperature;humidity
69393;SHT31;56582;44.624;20.378;2022-09-13T00:00:29;14.76;86.34
69393;SHT31;56582;44.624;20.378;2022-09-13T00:02:54;14.40;88.00
69393;SHT31;56582;44.624;20.378;2022-09-13T00:05:20;14.28;88.96
69393;SHT31;56582;44.624;20.378;2022-09-13T00:07:45;14.48;87.88
69393;SHT31;56582;44.624;20.378;2022-09-13T00:10:10;14.55;86.96
69393;SHT31;56582;44.624;20.378;2022-09-13T00:12:36;14.76;88.61
69393;SHT31;56582;44.624;20.378;2022-09-13T00:15:02;14.91;88.97
69393;SHT31;56582;44.624;20.378;2022-09-13T00:17:27;14.98;87.89
69393;SHT31;56582;44.624;20.378;2022-09-13T00:19:53;14.98;87.79
69393;SHT31;56582;44.624;20.378;2022-09-13T00:22:19;14.94;86.32
69393;SHT31;56582;44.624;20.378;2022-09-13T00:24:44;15.04;89.10
69393;SHT31;56582;44.624;20.378;2022-09-13T00:27:09;15.11;89.22
69393;SHT31;56582;44.624;20.378;2022-09-13T00:29:36;14.94;87.08
69393;SHT31;56582;44.624;20.378;2022-09-13T00:32:01;15.08;89.68
69393;SHT31;56582;44.624;20.378;2022-09-13T00:34:27;15.12;88.42
69393;SHT31;56582;44.624;20.378;2022-09-13T00:36:52;15.12;87.85
69393;SHT31;56582;44.624;20.378;2022-09-13T00:39:18;14.81;85.84
69393;SHT31;56582;44.624;20.378;2022-09-13T00:41:43;14.87;86.84
69393;SHT31;56582;44.624;20.378;2022-09-13T00:47:14;14.67;86.18
69393;SHT31;56582;44.624;20.378;2022-09-13T00:49:41;14.59;87.06
69393;SHT31;56582;44.624;20.378;2022-09-13T00:52:09;14.30;87.59
69393;SHT31;56582;44.624;20.378;2022-09-13T00:54:41;14.24;88.03
69393;SHT31;56582;44.624;20.378;2022-09-13T00:57:09;14.18;88.97
69393;SHT31;56582;44.624;20.378;2022-09-13T00:59:44;14.33;88.17
69393;SHT31;56582;44.624;20.378;2022-09-13T01:02:12;14.24;87.68
69393;SHT31;56582;44.624;20.378;2022-09-13T01:04:39;14.24;87.94
69393;SHT31;56582;44.624;20.378;2022-09-13T01:07:07;14.39;87.61
69393;SHT31;56582;44.624;20.378;2022-09-13T01:09:36;14.21;88.10
69393;SHT31;56582;44.624;20.378;2022-09-13T01:12:15;14.14;88.46
69393;SHT31;56582;44.624;20.378;2022-09-13T01:14:45;14.18;88.30
69393;SHT31;56582;44.624;20.378;2022-09-13T01:17:11;14.07;89.03
69393;SHT31;56582;44.624;20.378;2022-09-13T01:19:37;14.17;88.87
69393;SHT31;56582;44.624;20.378;2022-09-13T01:28:27;13.98;88.75
69393;SHT31;56582;44.624;20.378;2022-09-13T01:31:01;14.11;89.13
69393;SHT31;56582;44.624;20.378;2022-09-13T01:39:00;14.22;88.90
69393;SHT31;56582;44.624;20.378;2022-09-13T01:41:49;14.24;88.80
69393;SHT31;56582;44.624;20.378;2022-09-13T01:47:06;14.35;88.37
69393;SHT31;56582;44.624;20.378;2022-09-13T01:50:10;14.70;92.65
69393;SHT31;56582;44.624;20.378;2022-09-13T01:52:54;14.91;92.46
69393;SHT31;56582;44.624;20.378;2022-09-13T01:55:43;15.28;93.95
69393;SHT31;56582;44.624;20.378;2022-09-13T01:58:18;15.61;94.17
69393;SHT31;56582;44.624;20.378;2022-09-13T02:00:50;15.86;94.00
69393;SHT31;56582;44.624;20.378;2022-09-13T02:03:21;16.03;93.54
69393;SHT31;56582;44.624;20.378;2022-09-13T02:05:56;16.20;93.08
69393;SHT31;56582;44.624;20.378;2022-09-13T02:08:46;16.31;92.43
69393;SHT31;56582;44.624;20.378;2022-09-13T02:11:15;16.37;92.24
69393;SHT31;56582;44.624;20.378;2022-09-13T02:13:56;16.41;91.74
69393;SHT31;56582;44.624;20.378;2022-09-13T02:16:30;16.47;91.68
69393;SHT31;56582;44.624;20.378;2022-09-13T02:19:06;16.54;91.22
69393;SHT31;56582;44.624;20.378;2022-09-13T02:21:36;16.54;90.52
69393;SHT31;56582;44.624;20.378;2022-09-13T02:24:08;16.44;90.52
69393;SHT31;56582;44.624;20.378;2022-09-13T02:26:37;16.50;90.19
69393;SHT31;56582;44.624;20.378;2022-09-13T02:29:07;16.61;90.25
69393;SHT31;56582;44.624;20.378;2022-09-13T02:31:41;16.69;89.43
69393;SHT31;56582;44.624;20.378;2022-09-13T02:34:17;16.72;89.28
69393;SHT31;56582;44.624;20.378;2022-09-13T02:36:45;16.75;89.12
69393;SHT31;56582;44.624;20.378;2022-09-13T02:39:15;16.78;88.96
69393;SHT31;56582;44.624;20.378;2022-09-13T02:41:53;16.73;88.55
69393;SHT31;56582;44.624;20.378;2022-09-13T02:44:37;16.73;88.37
69393;SHT31;56582;44.624;20.378;2022-09-13T02:49:56;16.76;88.99
69393;SHT31;56582;44.624;20.378;2022-09-13T02:55:15;16.91;89.20
69393;SHT31;56582;44.624;20.378;2022-09-13T02:58:02;16.95;88.99
69393;SHT31;56582;44.624;20.378;2022-09-13T03:00:30;16.96;88.88
69393;SHT31;56582;44.624;20.378;2022-09-13T03:02:57;16.99;88.78
69393;SHT31;56582;44.624;20.378;2022-09-13T03:05:23;17.03;88.60
69393;SHT31;56582;44.624;20.378;2022-09-13T03:07:49;17.06;88.53
69393;SHT31;56582;44.624;20.378;2022-09-13T03:10:16;17.08;88.25
69393;SHT31;56582;44.624;20.378;2022-09-13T03:18:11;17.06;87.36
69393;SHT31;56582;44.624;20.378;2022-09-13T03:31:45;16.54;89.35
69393;SHT31;56582;44.624;20.378;2022-09-13T03:34:28;16.35;89.73
69393;SHT31;56582;44.624;20.378;2022-09-13T03:37:01;16.21;89.17
69393;SHT31;56582;44.624;20.378;2022-09-13T03:42:03;15.61;88.57
69393;SHT31;56582;44.624;20.378;2022-09-13T03:44:33;15.54;91.01
69393;SHT31;56582;44.624;20.378;2022-09-13T03:47:03;15.67;91.77
69393;SHT31;56582;44.624;20.378;2022-09-13T03:49:30;15.82;91.67
69393;SHT31;56582;44.624;20.378;2022-09-13T03:51:55;16.04;91.51
69393;SHT31;56582;44.624;20.378;2022-09-13T03:54:28;15.73;86.95
69393;SHT31;56582;44.624;20.378;2022-09-13T03:57:09;15.52;85.14
69393;SHT31;56582;44.624;20.378;2022-09-13T03:59:36;15.79;89.63
69393;SHT31;56582;44.624;20.378;2022-09-13T04:02:03;16.03;89.73
69393;SHT31;56582;44.624;20.378;2022-09-13T04:04:30;16.45;88.89
69393;SHT31;56582;44.624;20.378;2022-09-13T04:06:55;16.81;89.11
69393;SHT31;56582;44.624;20.378;2022-09-13T04:09:22;16.99;89.30
69393;SHT31;56582;44.624;20.378;2022-09-13T04:11:47;17.08;88.52
69393;SHT31;56582;44.624;20.378;2022-09-13T04:14:13;17.16;88.68
69393;SHT31;56582;44.624;20.378;2022-09-13T04:16:40;17.23;88.22
69393;SHT31;56582;44.624;20.378;2022-09-13T04:19:06;17.46;87.44
69393;SHT31;56582;44.624;20.378;2022-09-13T04:21:31;17.39;87.28
69393;SHT31;56582;44.624;20.378;2022-09-13T04:23:57;17.33;87.27
69393;SHT31;56582;44.624;20.378;2022-09-13T04:26:22;17.30;87.33
69393;SHT31;56582;44.624;20.378;2022-09-13T04:28:48;17.31;87.13
69393;SHT31;56582;44.624;20.378;2022-09-13T04:31:13;17.44;86.68
69393;SHT31;56582;44.624;20.378;2022-09-13T04:33:38;17.31;86.19
69393;SHT31;56582;44.624;20.378;2022-09-13T04:36:05;16.89;83.89
69393;SHT31;56582;44.624;20.378;2022-09-13T04:38:31;16.57;84.87
69393;SHT31;56582;44.624;20.378;2022-09-13T04:40:56;15.97;83.39
69393;SHT31;56582;44.624;20.378;2022-09-13T04:43:22;15.54;86.31
69393;SHT31;56582;44.624;20.378;2022-09-13T04:45:48;15.41;88.20
69393;SHT31;56582;44.624;20.378;2022-09-13T04:48:14;15.24;88.22
69393;SHT31;56582;44.624;20.378;2022-09-13T04:50:40;15.32;89.30
69393;SHT31;56582;44.624;20.378;2022-09-13T04:53:05;15.36;89.53
69393;SHT31;56582;44.624;20.378;2022-09-13T04:55:31;15.39;89.21
69393;SHT31;56582;44.624;20.378;2022-09-13T04:57:56;15.44;89.36
69393;SHT31;56582;44.624;20.378;2022-09-13T05:00:22;15.52;89.57
69393;SHT31;56582;44.624;20.378;2022-09-13T05:02:54;15.52;88.95
69393;SHT31;56582;44.624;20.378;2022-09-13T05:05:19;15.89;89.85
69393;SHT31;56582;44.624;20.378;2022-09-13T05:07:44;16.13;89.72
69393;SHT31;56582;44.624;20.378;2022-09-13T05:10:10;16.52;88.55
69393;SHT31;56582;44.624;20.378;2022-09-13T05:12:35;16.85;87.81
69393;SHT31;56582;44.624;20.378;2022-09-13T05:15:01;16.92;87.73
69393;SHT31;56582;44.624;20.378;2022-09-13T05:17:28;16.91;85.88
69393;SHT31;56582;44.624;20.378;2022-09-13T05:19:54;16.68;85.27
69393;SHT31;56582;44.624;20.378;2022-09-13T05:22:19;16.60;86.63
69393;SHT31;56582;44.624;20.378;2022-09-13T05:24:45;16.54;87.32
69393;SHT31;56582;44.624;20.378;2022-09-13T05:27:10;16.51;86.96
69393;SHT31;56582;44.624;20.378;2022-09-13T05:29:36;16.41;86.62
69393;SHT31;56582;44.624;20.378;2022-09-13T05:32:01;16.41;87.59
69393;SHT31;56582;44.624;20.378;2022-09-13T05:34:26;16.43;86.96
69393;SHT31;56582;44.624;20.378;2022-09-13T05:36:52;16.45;87.12
69393;SHT31;56582;44.624;20.378;2022-09-13T05:39:17;16.51;87.04
69393;SHT31;56582;44.624;20.378;2022-09-13T05:41:43;16.51;86.42
69393;SHT31;56582;44.624;20.378;2022-09-13T05:44:09;16.38;83.83
69393;SHT31;56582;44.624;20.378;2022-09-13T05:46:35;16.57;85.30
69393;SHT31;56582;44.624;20.378;2022-09-13T05:49:01;16.72;86.28
69393;SHT31;56582;44.624;20.378;2022-09-13T05:51:26;16.83;84.49
69393;SHT31;56582;44.624;20.378;2022-09-13T05:53:53;16.95;83.43
69393;SHT31;56582;44.624;20.378;2022-09-13T05:56:24;16.91;83.22
69393;SHT31;56582;44.624;20.378;2022-09-13T05:58:51;16.93;83.29
69393;SHT31;56582;44.624;20.378;2022-09-13T06:01:18;17.12;83.56
69393;SHT31;56582;44.624;20.378;2022-09-13T06:03:52;17.08;82.42
69393;SHT31;56582;44.624;20.378;2022-09-13T06:06:18;17.18;83.02
69393;SHT31;56582;44.624;20.378;2022-09-13T06:08:44;17.23;83.07
69393;SHT31;56582;44.624;20.378;2022-09-13T06:11:11;16.69;81.23
69393;SHT31;56582;44.624;20.378;2022-09-13T06:13:37;16.82;82.45
69393;SHT31;56582;44.624;20.378;2022-09-13T06:16:06;17.05;82.70
69393;SHT31;56582;44.624;20.378;2022-09-13T06:18:32;17.10;81.43
69393;SHT31;56582;44.624;20.378;2022-09-13T06:21:07;17.08;80.24
69393;SHT31;56582;44.624;20.378;2022-09-13T06:23:33;16.85;81.55
69393;SHT31;56582;44.624;20.378;2022-09-13T06:26:10;17.06;81.13
69393;SHT31;56582;44.624;20.378;2022-09-13T06:28:36;17.31;81.22
69393;SHT31;56582;44.624;20.378;2022-09-13T06:31:05;17.37;81.38
69393;SHT31;56582;44.624;20.378;2022-09-13T06:33:35;17.24;81.15
69393;SHT31;56582;44.624;20.378;2022-09-13T06:36:06;17.16;82.10
69393;SHT31;56582;44.624;20.378;2022-09-13T06:38:31;17.43;81.55
69393;SHT31;56582;44.624;20.378;2022-09-13T06:41:10;17.63;79.15
69393;SHT31;56582;44.624;20.378;2022-09-13T06:43:36;17.58;80.05
69393;SHT31;56582;44.624;20.378;2022-09-13T06:46:04;17.37;79.86
69393;SHT31;56582;44.624;20.378;2022-09-13T06:48:34;17.61;79.78
69393;SHT31;56582;44.624;20.378;2022-09-13T06:51:02;17.53;79.25
69393;SHT31;56582;44.624;20.378;2022-09-13T06:53:29;17.43;80.06
69393;SHT31;56582;44.624;20.378;2022-09-13T06:58:28;17.63;79.86
69393;SHT31;56582;44.624;20.378;2022-09-13T07:00:54;17.58;79.42
69393;SHT31;56582;44.624;20.378;2022-09-13T07:03:19;17.34;79.36
69393;SHT31;56582;44.624;20.378;2022-09-13T07:05:44;17.54;80.45
69393;SHT31;56582;44.624;20.378;2022-09-13T07:08:10;18.04;80.81
69393;SHT31;56582;44.624;20.378;2022-09-13T07:10:35;18.09;78.22
69393;SHT31;56582;44.624;20.378;2022-09-13T07:13:01;18.35;79.18
69393;SHT31;56582;44.624;20.378;2022-09-13T07:15:26;18.42;77.02
69393;SHT31;56582;44.624;20.378;2022-09-13T07:17:51;18.67;76.58
69393;SHT31;56582;44.624;20.378;2022-09-13T07:20:17;18.61;76.18
69393;SHT31;56582;44.624;20.378;2022-09-13T07:22:42;18.46;74.04
69393;SHT31;56582;44.624;20.378;2022-09-13T07:25:08;18.45;74.27
69393;SHT31;56582;44.624;20.378;2022-09-13T07:27:33;18.25;75.39
69393;SHT31;56582;44.624;20.378;2022-09-13T07:29:59;18.08;74.60
69393;SHT31;56582;44.624;20.378;2022-09-13T07:32:24;18.39;76.25
69393;SHT31;56582;44.624;20.378;2022-09-13T07:34:50;18.61;75.73
69393;SHT31;56582;44.624;20.378;2022-09-13T07:37:15;18.70;73.71
69393;SHT31;56582;44.624;20.378;2022-09-13T07:39:40;19.12;74.08
69393;SHT31;56582;44.624;20.378;2022-09-13T07:42:06;19.11;73.66
69393;SHT31;56582;44.624;20.378;2022-09-13T07:44:31;19.26;73.18
69393;SHT31;56582;44.624;20.378;2022-09-13T07:46:57;19.19;70.46
69393;SHT31;56582;44.624;20.378;2022-09-13T07:49:22;19.29;71.71
69393;SHT31;56582;44.624;20.378;2022-09-13T07:51:48;19.48;70.85
69393;SHT31;56582;44.624;20.378;2022-09-13T07:54:17;19.44;70.27
69393;SHT31;56582;44.624;20.378;2022-09-13T07:56:43;19.69;68.75
69393;SHT31;56582;44.624;20.378;2022-09-13T07:59:15;19.49;70.73
69393;SHT31;56582;44.624;20.378;2022-09-13T08:01:42;19.73;69.99
69393;SHT31;56582;44.624;20.378;2022-09-13T08:04:13;19.41;68.03
69393;SHT31;56582;44.624;20.378;2022-09-13T08:06:39;19.48;69.47
69393;SHT31;56582;44.624;20.378;2022-09-13T08:09:07;19.58;67.85
69393;SHT31;56582;44.624;20.378;2022-09-13T08:11:33;19.63;68.18
69393;SHT31;56582;44.624;20.378;2022-09-13T08:13:59;19.74;67.22
69393;SHT31;56582;44.624;20.378;2022-09-13T08:16:26;19.93;66.39
69393;SHT31;56582;44.624;20.378;2022-09-13T08:18:54;19.97;64.90
69393;SHT31;56582;44.624;20.378;2022-09-13T08:21:21;19.76;64.96
69393;SHT31;56582;44.624;20.378;2022-09-13T08:23:47;19.61;65.75
69393;SHT31;56582;44.624;20.378;2022-09-13T08:26:13;19.66;67.52
69393;SHT31;56582;44.624;20.378;2022-09-13T08:28:39;19.73;66.24
69393;SHT31;56582;44.624;20.378;2022-09-13T08:31:07;19.97;65.70
69393;SHT31;56582;44.624;20.378;2022-09-13T08:33:33;20.07;64.74
69393;SHT31;56582;44.624;20.378;2022-09-13T08:35:59;19.98;64.39
69393;SHT31;56582;44.624;20.378;2022-09-13T08:38:24;20.03;65.63
69393;SHT31;56582;44.624;20.378;2022-09-13T08:40:53;20.42;68.39
69393;SHT31;56582;44.624;20.378;2022-09-13T08:46:16;20.27;64.43
69393;SHT31;56582;44.624;20.378;2022-09-13T08:48:46;20.34;63.76
69393;SHT31;56582;44.624;20.378;2022-09-13T08:54:02;20.83;66.97
69393;SHT31;56582;44.624;20.378;2022-09-13T08:56:37;20.67;62.93
69393;SHT31;56582;44.624;20.378;2022-09-13T09:04:31;20.90;62.87
69393;SHT31;56582;44.624;20.378;2022-09-13T09:07:14;21.19;63.42
69393;SHT31;56582;44.624;20.378;2022-09-13T09:09:54;20.88;62.38
69393;SHT31;56582;44.624;20.378;2022-09-13T09:12:35;21.10;64.40
69393;SHT31;56582;44.624;20.378;2022-09-13T09:15:04;21.24;61.15
69393;SHT31;56582;44.624;20.378;2022-09-13T09:17:47;20.92;62.00
69393;SHT31;56582;44.624;20.378;2022-09-13T09:20:35;20.76;59.94
69393;SHT31;56582;44.624;20.378;2022-09-13T09:23:16;21.03;61.31
69393;SHT31;56582;44.624;20.378;2022-09-13T09:25:42;20.93;61.29
69393;SHT31;56582;44.624;20.378;2022-09-13T09:28:12;20.99;61.69
69393;SHT31;56582;44.624;20.378;2022-09-13T09:30:45;21.19;62.60
69393;SHT31;56582;44.624;20.378;2022-09-13T09:36:22;21.43;61.20
69393;SHT31;56582;44.624;20.378;2022-09-13T09:38:50;21.16;62.06
69393;SHT31;56582;44.624;20.378;2022-09-13T09:41:29;21.53;60.93
69393;SHT31;56582;44.624;20.378;2022-09-13T09:44:35;21.34;60.15
69393;SHT31;56582;44.624;20.378;2022-09-13T09:47:21;21.60;60.64
69393;SHT31;56582;44.624;20.378;2022-09-13T09:57:51;21.67;63.47
69393;SHT31;56582;44.624;20.378;2022-09-13T10:00:18;21.68;59.04
69393;SHT31;56582;44.624;20.378;2022-09-13T10:02:45;21.75;59.16
69393;SHT31;56582;44.624;20.378;2022-09-13T10:05:12;21.37;58.68
69393;SHT31;56582;44.624;20.378;2022-09-13T10:07:42;21.47;60.00
69393;SHT31;56582;44.624;20.378;2022-09-13T10:10:52;21.73;60.46
69393;SHT31;56582;44.624;20.378;2022-09-13T10:13:16;22.04;56.91
69393;SHT31;56582;44.624;20.378;2022-09-13T10:15:53;22.19;58.32
69393;SHT31;56582;44.624;20.378;2022-09-13T10:18:20;22.04;52.42
69393;SHT31;56582;44.624;20.378;2022-09-13T10:21:21;22.18;54.71
69393;SHT31;56582;44.624;20.378;2022-09-13T10:23:48;22.36;56.16
69393;SHT31;56582;44.624;20.378;2022-09-13T10:26:21;22.36;54.72
69393;SHT31;56582;44.624;20.378;2022-09-13T10:29:19;22.50;55.02
69393;SHT31;56582;44.624;20.378;2022-09-13T10:31:47;22.37;53.78
69393;SHT31;56582;44.624;20.378;2022-09-13T10:34:29;22.28;53.10
69393;SHT31;56582;44.624;20.378;2022-09-13T10:37:15;22.42;55.40
69393;SHT31;56582;44.624;20.378;2022-09-13T10:42:21;22.78;56.65
69393;SHT31;56582;44.624;20.378;2022-09-13T10:45:05;22.87;54.87
69393;SHT31;56582;44.624;20.378;2022-09-13T10:47:48;22.64;53.06
69393;SHT31;56582;44.624;20.378;2022-09-13T10:50:25;22.57;53.34
69393;SHT31;56582;44.624;20.378;2022-09-13T10:52:53;22.20;54.80
69393;SHT31;56582;44.624;20.378;2022-09-13T11:00:11;22.45;53.31
69393;SHT31;56582;44.624;20.378;2022-09-13T11:11:26;22.43;54.56
69393;SHT31;56582;44.624;20.378;2022-09-13T11:36:13;22.66;54.66
69393;SHT31;56582;44.624;20.378;2022-09-13T11:39:01;22.78;51.56
69393;SHT31;56582;44.624;20.378;2022-09-13T11:41:40;23.04;52.75
69393;SHT31;56582;44.624;20.378;2022-09-13T11:57:25;23.28;55.18
69393;SHT31;56582;44.624;20.378;2022-09-13T12:00:21;22.86;52.00
69393;SHT31;56582;44.624;20.378;2022-09-13T12:05:58;22.98;53.20
69393;SHT31;56582;44.624;20.378;2022-09-13T12:08:29;23.24;56.98
69393;SHT31;56582;44.624;20.378;2022-09-13T12:11:02;23.51;54.46
69393;SHT31;56582;44.624;20.378;2022-09-13T12:13:39;23.53;51.91
69393;SHT31;56582;44.624;20.378;2022-09-13T12:16:12;23.65;54.09
69393;SHT31;56582;44.624;20.378;2022-09-13T12:18:43;23.73;53.82
69393;SHT31;56582;44.624;20.378;2022-09-13T12:21:11;23.86;52.37
69393;SHT31;56582;44.624;20.378;2022-09-13T12:26:36;23.62;51.21
69393;SHT31;56582;44.624;20.378;2022-09-13T12:29:19;23.86;55.08
69393;SHT31;56582;44.624;20.378;2022-09-13T12:31:48;23.72;49.65
69393;SHT31;56582;44.624;20.378;2022-09-13T12:34:26;23.29;49.01
69393;SHT31;56582;44.624;20.378;2022-09-13T12:36:57;23.67;52.76
69393;SHT31;56582;44.624;20.378;2022-09-13T12:56:00;23.32;49.88
69393;SHT31;56582;44.624;20.378;2022-09-13T13:01:27;23.66;50.80
69393;SHT31;56582;44.624;20.378;2022-09-13T13:04:08;23.69;49.37
69393;SHT31;56582;44.624;20.378;2022-09-13T13:06:49;23.79;50.79
69393;SHT31;56582;44.624;20.378;2022-09-13T13:09:44;23.58;49.35
69393;SHT31;56582;44.624;20.378;2022-09-13T13:12:23;23.69;50.07
69393;SHT31;56582;44.624;20.378;2022-09-13T13:14:50;23.61;48.02
69393;SHT31;56582;44.624;20.378;2022-09-13T13:17:44;23.56;50.72
69393;SHT31;56582;44.624;20.378;2022-09-13T13:39:12;23.58;48.66
69393;SHT31;56582;44.624;20.378;2022-09-13T13:41:43;23.51;50.47
69393;SHT31;56582;44.624;20.378;2022-09-13T13:46:43;23.55;51.89
69393;SHT31;56582;44.624;20.378;2022-09-13T14:00:44;23.43;51.60
69393;SHT31;56582;44.624;20.378;2022-09-13T14:08:37;23.55;49.72
69393;SHT31;56582;44.624;20.378;2022-09-13T14:11:26;23.56;50.82
69393;SHT31;56582;44.624;20.378;2022-09-13T14:19:20;23.16;50.99
69393;SHT31;56582;44.624;20.378;2022-09-13T14:24:46;23.28;50.94
69393;SHT31;56582;44.624;20.378;2022-09-13T14:27:28;22.91;49.21
69393;SHT31;56582;44.624;20.378;2022-09-13T14:32:56;23.24;51.77
69393;SHT31;56582;44.624;20.378;2022-09-13T14:37:50;23.07;54.95
69393;SHT31;56582;44.624;20.378;2022-09-13T14:40:21;23.08;52.96
69393;SHT31;56582;44.624;20.378;2022-09-13T14:42:48;23.10;54.22
69393;SHT31;56582;44.624;20.378;2022-09-13T14:45:19;22.98;53.39
69393;SHT31;56582;44.624;20.378;2022-09-13T14:48:01;22.97;53.68
69393;SHT31;56582;44.624;20.378;2022-09-13T14:50:37;23.10;53.73
69393;SHT31;56582;44.624;20.378;2022-09-13T14:53:06;23.07;54.89
69393;SHT31;56582;44.624;20.378;2022-09-13T14:55:38;22.98;55.16
69393;SHT31;56582;44.624;20.378;2022-09-13T14:58:07;22.94;53.76
69393;SHT31;56582;44.624;20.378;2022-09-13T15:00:54;22.88;54.60
69393;SHT31;56582;44.624;20.378;2022-09-13T15:03:21;22.91;54.31
69393;SHT31;56582;44.624;20.378;2022-09-13T15:05:58;22.98;54.70
69393;SHT31;56582;44.624;20.378;2022-09-13T15:11:00;22.80;53.51
69393;SHT31;56582;44.624;20.378;2022-09-13T15:13:26;22.70;53.92
69393;SHT31;56582;44.624;20.378;2022-09-13T15:15:53;22.74;54.88
69393;SHT31;56582;44.624;20.378;2022-09-13T15:20:56;22.78;55.69
69393;SHT31;56582;44.624;20.378;2022-09-13T15:26:03;22.74;57.55
69393;SHT31;56582;44.624;20.378;2022-09-13T15:28:55;22.74;55.98
69393;SHT31;56582;44.624;20.378;2022-09-13T15:31:33;22.77;56.99
69393;SHT31;56582;44.624;20.378;2022-09-13T15:36:43;22.81;55.25
69393;SHT31;56582;44.624;20.378;2022-09-13T15:39:15;22.63;55.51
69393;SHT31;56582;44.624;20.378;2022-09-13T15:41:55;22.68;55.96
69393;SHT31;56582;44.624;20.378;2022-09-13T15:44:22;22.54;56.79
69393;SHT31;56582;44.624;20.378;2022-09-13T15:46:48;22.45;57.19
69393;SHT31;56582;44.624;20.378;2022-09-13T15:49:18;22.56;56.89
69393;SHT31;56582;44.624;20.378;2022-09-13T15:51:45;22.49;57.79
69393;SHT31;56582;44.624;20.378;2022-09-13T15:54:13;22.36;60.08
69393;SHT31;56582;44.624;20.378;2022-09-13T15:56:42;22.26;61.18
69393;SHT31;56582;44.624;20.378;2022-09-13T15:59:15;22.19;61.47
69393;SHT31;56582;44.624;20.378;2022-09-13T16:01:43;22.16;61.19
69393;SHT31;56582;44.624;20.378;2022-09-13T16:04:09;22.09;62.63
69393;SHT31;56582;44.624;20.378;2022-09-13T16:06:42;22.01;62.62
69393;SHT31;56582;44.624;20.378;2022-09-13T16:09:23;21.95;63.06
69393;SHT31;56582;44.624;20.378;2022-09-13T16:11:51;21.97;62.18
69393;SHT31;56582;44.624;20.378;2022-09-13T16:14:17;21.87;61.85
69393;SHT31;56582;44.624;20.378;2022-09-13T16:16:46;21.79;61.80
69393;SHT31;56582;44.624;20.378;2022-09-13T16:19:20;21.74;62.53
69393;SHT31;56582;44.624;20.378;2022-09-13T16:21:47;21.69;62.78
69393;SHT31;56582;44.624;20.378;2022-09-13T16:24:13;21.71;62.80
69393;SHT31;56582;44.624;20.378;2022-09-13T16:26:39;21.36;63.03
69393;SHT31;56582;44.624;20.378;2022-09-13T16:29:05;21.13;63.88
69393;SHT31;56582;44.624;20.378;2022-09-13T16:31:30;21.20;63.42
69393;SHT31;56582;44.624;20.378;2022-09-13T16:33:56;20.98;63.81
69393;SHT31;56582;44.624;20.378;2022-09-13T16:36:22;20.93;64.08
69393;SHT31;56582;44.624;20.378;2022-09-13T16:38:47;20.64;63.99
69393;SHT31;56582;44.624;20.378;2022-09-13T16:41:13;20.45;64.71
69393;SHT31;56582;44.624;20.378;2022-09-13T16:43:38;20.61;64.13
69393;SHT31;56582;44.624;20.378;2022-09-13T16:46:10;20.45;64.60
69393;SHT31;56582;44.624;20.378;2022-09-13T16:48:37;20.51;63.78
69393;SHT31;56582;44.624;20.378;2022-09-13T16:51:07;20.11;64.01
69393;SHT31;56582;44.624;20.378;2022-09-13T16:53:34;20.11;63.82
69393;SHT31;56582;44.624;20.378;2022-09-13T16:56:09;19.98;63.99
69393;SHT31;56582;44.624;20.378;2022-09-13T16:58:36;19.84;64.46
69393;SHT31;56582;44.624;20.378;2022-09-13T17:01:04;19.80;63.97
69393;SHT31;56582;44.624;20.378;2022-09-13T17:03:30;19.62;64.33
69393;SHT31;56582;44.624;20.378;2022-09-13T17:05:57;19.82;64.39
69393;SHT31;56582;44.624;20.378;2022-09-13T17:08:23;19.72;64.61
69393;SHT31;56582;44.624;20.378;2022-09-13T17:10:48;19.76;64.73
69393;SHT31;56582;44.624;20.378;2022-09-13T17:13:14;19.76;63.87
69393;SHT31;56582;44.624;20.378;2022-09-13T17:15:39;19.65;64.63
69393;SHT31;56582;44.624;20.378;2022-09-13T17:18:05;19.38;66.31
69393;SHT31;56582;44.624;20.378;2022-09-13T17:20:30;19.31;65.96
69393;SHT31;56582;44.624;20.378;2022-09-13T17:22:55;19.44;65.52
69393;SHT31;56582;44.624;20.378;2022-09-13T17:25:21;19.11;67.33
69393;SHT31;56582;44.624;20.378;2022-09-13T17:27:47;19.19;66.79
69393;SHT31;56582;44.624;20.378;2022-09-13T17:30:12;19.29;65.86
69393;SHT31;56582;44.624;20.378;2022-09-13T17:32:38;19.41;64.75
69393;SHT31;56582;44.624;20.378;2022-09-13T17:35:04;19.45;64.31
69393;SHT31;56582;44.624;20.378;2022-09-13T17:37:30;19.48;64.01
69393;SHT31;56582;44.624;20.378;2022-09-13T17:39:55;19.53;63.82
69393;SHT31;56582;44.624;20.378;2022-09-13T17:42:21;19.14;65.42
69393;SHT31;56582;44.624;20.378;2022-09-13T17:44:46;19.12;65.53
69393;SHT31;56582;44.624;20.378;2022-09-13T17:47:12;19.19;65.06
69393;SHT31;56582;44.624;20.378;2022-09-13T17:49:37;19.32;64.47
69393;SHT31;56582;44.624;20.378;2022-09-13T17:52:02;19.21;64.77
69393;SHT31;56582;44.624;20.378;2022-09-13T17:54:28;19.18;64.83
69393;SHT31;56582;44.624;20.378;2022-09-13T17:56:53;19.24;69.56
69393;SHT31;56582;44.624;20.378;2022-09-13T17:59:20;19.31;68.85
69393;SHT31;56582;44.624;20.378;2022-09-13T18:01:52;19.32;67.92
69393;SHT31;56582;44.624;20.378;2022-09-13T18:04:20;19.29;67.44
69393;SHT31;56582;44.624;20.378;2022-09-13T18:06:46;19.08;65.76
69393;SHT31;56582;44.624;20.378;2022-09-13T18:09:13;19.08;66.23
69393;SHT31;56582;44.624;20.378;2022-09-13T18:11:40;19.07;65.84
69393;SHT31;56582;44.624;20.378;2022-09-13T18:14:09;18.94;66.69
69393;SHT31;56582;44.624;20.378;2022-09-13T18:16:35;18.81;66.53
69393;SHT31;56582;44.624;20.378;2022-09-13T18:19:01;18.67;68.91
69393;SHT31;56582;44.624;20.378;2022-09-13T18:21:27;18.78;68.58
69393;SHT31;56582;44.624;20.378;2022-09-13T18:23:55;18.86;71.56
69393;SHT31;56582;44.624;20.378;2022-09-13T18:26:23;18.70;68.78
69393;SHT31;56582;44.624;20.378;2022-09-13T18:29:00;18.37;70.30
69393;SHT31;56582;44.624;20.378;2022-09-13T18:31:29;18.36;70.66
69393;SHT31;56582;44.624;20.378;2022-09-13T18:33:57;18.39;69.60
69393;SHT31;56582;44.624;20.378;2022-09-13T18:36:24;18.33;69.97
69393;SHT31;56582;44.624;20.378;2022-09-13T18:38:51;18.32;70.62
69393;SHT31;56582;44.624;20.378;2022-09-13T18:41:37;18.19;71.17
69393;SHT31;56582;44.624;20.378;2022-09-13T18:44:08;18.21;70.82
69393;SHT31;56582;44.624;20.378;2022-09-13T18:46:34;18.19;70.58
69393;SHT31;56582;44.624;20.378;2022-09-13T18:49:00;18.18;70.81
69393;SHT31;56582;44.624;20.378;2022-09-13T18:51:33;18.24;69.77
69393;SHT31;56582;44.624;20.378;2022-09-13T18:53:59;18.19;70.05
69393;SHT31;56582;44.624;20.378;2022-09-13T18:56:26;18.18;69.66
69393;SHT31;56582;44.624;20.378;2022-09-13T18:58:53;18.15;69.78